sensor_id;sensor_type;location;lat;lon;timestamp;P1;durP1;ratioP1;P2;durP2;ratioP2
7675;SDS011;3880;51.464;-2.566;2022-09-03T00:48:03;8.77;;;7.27;;
7675;SDS011;3880;51.464;-2.566;2022-09-03T00:51:26;8.50;;;7.60;;
7675;SDS011;3880;51.464;-2.566;2022-09-03T00:57:24;8.37;;;7.27;;
7675;SDS011;3880;51.464;-2.566;2022-09-03T01:04:00;8.77;;;6.80;;
7675;SDS011;3880;51.464;-2.566;2022-09-03T01:38:15;10.07;;;7.30;;
7675;SDS011;3880;51.464;-2.566;2022-09-03T01:41:51;9.33;;;7.90;;
7675;SDS011;3880;51.464;-2.566;2022-09-03T07:40:55;17.50;;;15.70;;
7675;SDS011;3880;51.464;-2.566;2022-09-03T07:43:32;17.90;;;16.10;;
7675;SDS011;3880;51.464;-2.566;2022-09-03T07:46:00;18.23;;;16.13;;
7675;SDS011;3880;51.464;-2.566;2022-09-03T07:48:28;17.47;;;15.67;;
7675;SDS011;3880;51.464;-2.566;2022-09-03T07:50:56;18.97;;;16.90;;
7675;SDS011;3880;51.464;-2.566;2022-09-03T07:53:25;20.67;;;16.07;;
7675;SDS011;3880;51.464;-2.566;2022-09-03T07:55:54;18.60;;;16.10;;
7675;SDS011;3880;51.464;-2.566;2022-09-03T07:58:27;18.70;;;16.67;;
7675;SDS011;3880;51.464;-2.566;2022-09-03T08:25:30;15.33;;;13.00;;
7675;SDS011;3880;51.464;-2.566;2022-09-03T08:27:59;14.70;;;12.63;;
7675;SDS011;3880;51.464;-2.566;2022-09-03T08:30:28;17.67;;;12.33;;
7675;SDS011;3880;51.464;-2.566;2022-09-03T08:32:55;15.40;;;11.50;;
7675;SDS011;3880;51.464;-2.566;2022-09-03T08:35:22;11.50;;;10.40;;
7675;SDS011;3880;51.464;-2.566;2022-09-03T08:37:49;12.10;;;10.87;;
7675;SDS011;3880;51.464;-2.566;2022-09-03T08:40:19;12.27;;;10.97;;
7675;SDS011;3880;51.464;-2.566;2022-09-03T08:42:53;11.30;;;10.13;;
7675;SDS011;3880;51.464;-2.566;2022-09-03T08:45:30;12.83;;;9.43;;
7675;SDS011;3880;51.464;-2.566;2022-09-03T08:48:00;11.33;;;10.20;;
7675;SDS011;3880;51.464;-2.566;2022-09-03T08:50:34;12.40;;;10.97;;
7675;SDS011;3880;51.464;-2.566;2022-09-03T08:53:06;13.63;;;10.67;;
7675;SDS011;3880;51.464;-2.566;2022-09-03T08:55:42;12.10;;;10.90;;
7675;SDS011;3880;51.464;-2.566;2022-09-03T08:58:16;13.53;;;10.97;;
7675;SDS011;3880;51.464;-2.566;2022-09-03T09:00:49;12.60;;;10.93;;
7675;SDS011;3880;51.464;-2.566;2022-09-03T09:06:22;13.03;;;11.03;;
7675;SDS011;3880;51.464;-2.566;2022-09-03T09:09:02;14.03;;;11.00;;
7675;SDS011;3880;51.464;-2.566;2022-09-03T09:11:42;13.43;;;12.03;;
7675;SDS011;3880;51.464;-2.566;2022-09-03T09:14:17;11.70;;;10.50;;
7675;SDS011;3880;51.464;-2.566;2022-09-03T09:16:49;13.10;;;11.80;;
7675;SDS011;3880;51.464;-2.566;2022-09-03T09:19:30;17.60;;;13.57;;
7675;SDS011;3880;51.464;-2.566;2022-09-03T09:22:08;21.07;;;13.50;;
7675;SDS011;3880;51.464;-2.566;2022-09-03T09:24:38;17.80;;;15.53;;
7675;SDS011;3880;51.464;-2.566;2022-09-03T09:27:12;20.00;;;16.53;;
7675;SDS011;3880;51.464;-2.566;2022-09-03T09:29:42;22.10;;;18.07;;
7675;SDS011;3880;51.464;-2.566;2022-09-03T09:32:13;22.77;;;18.80;;
7675;SDS011;3880;51.464;-2.566;2022-09-03T09:34:43;21.27;;;19.07;;
7675;SDS011;3880;51.464;-2.566;2022-09-03T09:37:11;24.60;;;21.73;;
7675;SDS011;3880;51.464;-2.566;2022-09-03T09:39:40;24.70;;;22.07;;
7675;SDS011;3880;51.464;-2.566;2022-09-03T09:42:21;25.07;;;22.27;;
7675;SDS011;3880;51.464;-2.566;2022-09-03T09:44:49;25.07;;;19.90;;
7675;SDS011;3880;51.464;-2.566;2022-09-03T09:47:20;27.10;;;21.67;;
7675;SDS011;3880;51.464;-2.566;2022-09-03T09:49:52;26.83;;;20.77;;
7675;SDS011;3880;51.464;-2.566;2022-09-03T09:52:20;30.97;;;19.93;;
7675;SDS011;3880;51.464;-2.566;2022-09-03T09:54:50;22.53;;;19.17;;
7675;SDS011;3880;51.464;-2.566;2022-09-03T09:57:22;26.63;;;19.37;;
7675;SDS011;3880;51.464;-2.566;2022-09-03T10:00:00;22.90;;;19.10;;
7675;SDS011;3880;51.464;-2.566;2022-09-03T10:02:32;24.40;;;19.20;;
7675;SDS011;3880;51.464;-2.566;2022-09-03T10:05:11;23.40;;;18.50;;
7675;SDS011;3880;51.464;-2.566;2022-09-03T10:07:39;21.40;;;18.17;;
7675;SDS011;3880;51.464;-2.566;2022-09-03T10:10:09;19.73;;;17.60;;
7675;SDS011;3880;51.464;-2.566;2022-09-03T10:12:43;22.43;;;18.57;;
7675;SDS011;3880;51.464;-2.566;2022-09-03T10:15:17;21.80;;;18.77;;
7675;SDS011;3880;51.464;-2.566;2022-09-03T10:17:52;18.23;;;16.37;;
7675;SDS011;3880;51.464;-2.566;2022-09-03T10:20:26;16.77;;;15.10;;
7675;SDS011;3880;51.464;-2.566;2022-09-03T10:23:04;21.47;;;15.43;;
7675;SDS011;3880;51.464;-2.566;2022-09-03T10:25:38;15.27;;;13.40;;
7675;SDS011;3880;51.464;-2.566;2022-09-03T10:28:17;18.48;;;13.10;;
7675;SDS011;3880;51.464;-2.566;2022-09-03T10:30:57;15.70;;;13.70;;
7675;SDS011;3880;51.464;-2.566;2022-09-03T10:33:38;19.88;;;17.98;;
7675;SDS011;3880;51.464;-2.566;2022-09-03T10:36:10;15.30;;;13.70;;
7675;SDS011;3880;51.464;-2.566;2022-09-03T10:38:44;18.58;;;12.95;;
7675;SDS011;3880;51.464;-2.566;2022-09-03T10:41:19;14.15;;;10.52;;
7675;SDS011;3880;51.464;-2.566;2022-09-03T10:44:07;13.43;;;12.05;;
7675;SDS011;3880;51.464;-2.566;2022-09-03T10:47:01;15.60;;;11.48;;
7675;SDS011;3880;51.464;-2.566;2022-09-03T10:49:45;16.17;;;12.30;;
7675;SDS011;3880;51.464;-2.566;2022-09-03T10:52:19;15.35;;;11.85;;
7675;SDS011;3880;51.464;-2.566;2022-09-03T10:54:58;21.23;;;11.05;;
7675;SDS011;3880;51.464;-2.566;2022-09-03T10:57:41;21.40;;;11.98;;
7675;SDS011;3880;51.464;-2.566;2022-09-03T11:00:16;16.05;;;11.48;;
7675;SDS011;3880;51.464;-2.566;2022-09-03T11:05:59;12.68;;;10.10;;
7675;SDS011;3880;51.464;-2.566;2022-09-03T11:08:31;11.20;;;10.00;;
7675;SDS011;3880;51.464;-2.566;2022-09-03T11:11:06;14.25;;;10.45;;
7675;SDS011;3880;51.464;-2.566;2022-09-03T11:13:38;11.52;;;10.35;;
7675;SDS011;3880;51.464;-2.566;2022-09-03T11:16:14;15.10;;;11.23;;
7675;SDS011;3880;51.464;-2.566;2022-09-03T11:18:46;11.15;;;9.95;;
7675;SDS011;3880;51.464;-2.566;2022-09-03T11:21:16;10.90;;;9.80;;
7675;SDS011;3880;51.464;-2.566;2022-09-03T11:23:46;16.95;;;12.95;;
7675;SDS011;3880;51.464;-2.566;2022-09-03T11:26:18;11.13;;;10.02;;
7675;SDS011;3880;51.464;-2.566;2022-09-03T11:28:50;12.88;;;9.80;;
7675;SDS011;3880;51.464;-2.566;2022-09-03T11:31:30;16.23;;;10.93;;
7675;SDS011;3880;51.464;-2.566;2022-09-03T11:34:05;13.63;;;9.98;;
7675;SDS011;3880;51.464;-2.566;2022-09-03T11:36:34;15.85;;;10.40;;
7675;SDS011;3880;51.464;-2.566;2022-09-03T11:39:13;13.18;;;10.38;;
7675;SDS011;3880;51.464;-2.566;2022-09-03T11:41:54;12.13;;;8.98;;
7675;SDS011;3880;51.464;-2.566;2022-09-03T11:44:23;15.30;;;9.27;;
7675;SDS011;3880;51.464;-2.566;2022-09-03T11:47:11;11.77;;;9.50;;
7675;SDS011;3880;51.464;-2.566;2022-09-03T11:49:43;10.45;;;9.40;;
7675;SDS011;3880;51.464;-2.566;2022-09-03T11:52:23;10.88;;;9.48;;
7675;SDS011;3880;51.464;-2.566;2022-09-03T11:54:51;12.40;;;9.23;;
7675;SDS011;3880;51.464;-2.566;2022-09-03T11:57:21;11.20;;;9.77;;
7675;SDS011;3880;51.464;-2.566;2022-09-03T11:59:52;10.40;;;9.23;;
7675;SDS011;3880;51.464;-2.566;2022-09-03T12:02:24;11.63;;;9.73;;
7675;SDS011;3880;51.464;-2.566;2022-09-03T12:05:02;13.17;;;8.33;;
7675;SDS011;3880;51.464;-2.566;2022-09-03T12:07:43;15.77;;;8.50;;
7675;SDS011;3880;51.464;-2.566;2022-09-03T12:10:25;8.60;;;7.63;;
7675;SDS011;3880;51.464;-2.566;2022-09-03T12:13:15;25.97;;;18.87;;
7675;SDS011;3880;51.464;-2.566;2022-09-03T12:16:05;8.73;;;7.13;;
7675;SDS011;3880;51.464;-2.566;2022-09-03T12:18:45;9.90;;;7.87;;
7675;SDS011;3880;51.464;-2.566;2022-09-03T12:21:17;10.00;;;8.07;;
7675;SDS011;3880;51.464;-2.566;2022-09-03T12:23:46;12.43;;;7.97;;
7675;SDS011;3880;51.464;-2.566;2022-09-03T12:26:14;8.33;;;7.10;;
7675;SDS011;3880;51.464;-2.566;2022-09-03T12:28:44;8.70;;;6.53;;
7675;SDS011;3880;51.464;-2.566;2022-09-03T12:31:15;9.40;;;6.87;;
7675;SDS011;3880;51.464;-2.566;2022-09-03T12:33:49;6.37;;;5.77;;
7675;SDS011;3880;51.464;-2.566;2022-09-03T12:36:18;6.77;;;4.93;;
7675;SDS011;3880;51.464;-2.566;2022-09-03T12:38:47;5.67;;;4.90;;
7675;SDS011;3880;51.464;-2.566;2022-09-03T12:41:24;11.93;;;5.75;;
7675;SDS011;3880;51.464;-2.566;2022-09-03T12:43:53;5.20;;;4.57;;
7675;SDS011;3880;51.464;-2.566;2022-09-03T12:46:22;7.18;;;4.32;;
7675;SDS011;3880;51.464;-2.566;2022-09-03T12:48:55;6.65;;;4.50;;
7675;SDS011;3880;51.464;-2.566;2022-09-03T12:51:32;5.78;;;4.55;;
7675;SDS011;3880;51.464;-2.566;2022-09-03T12:54:01;7.70;;;4.30;;
7675;SDS011;3880;51.464;-2.566;2022-09-03T12:56:31;5.05;;;3.75;;
7675;SDS011;3880;51.464;-2.566;2022-09-03T12:59:00;6.43;;;4.10;;
7675;SDS011;3880;51.464;-2.566;2022-09-03T13:01:33;8.10;;;3.35;;
7675;SDS011;3880;51.464;-2.566;2022-09-03T13:04:13;9.63;;;4.03;;
7675;SDS011;3880;51.464;-2.566;2022-09-03T13:06:45;8.07;;;3.35;;
7675;SDS011;3880;51.464;-2.566;2022-09-03T13:09:18;5.82;;;3.42;;
7675;SDS011;3880;51.464;-2.566;2022-09-03T13:11:48;5.60;;;3.42;;
7675;SDS011;3880;51.464;-2.566;2022-09-03T13:14:16;5.47;;;3.92;;
7675;SDS011;3880;51.464;-2.566;2022-09-03T13:19:40;6.30;;;4.03;;
7675;SDS011;3880;51.464;-2.566;2022-09-03T13:22:17;7.90;;;4.50;;
7675;SDS011;3880;51.464;-2.566;2022-09-03T13:24:55;5.88;;;4.25;;
7675;SDS011;3880;51.464;-2.566;2022-09-03T13:27:31;4.88;;;4.18;;
7675;SDS011;3880;51.464;-2.566;2022-09-03T13:30:04;4.60;;;4.03;;
7675;SDS011;3880;51.464;-2.566;2022-09-03T13:32:41;6.95;;;4.70;;
7675;SDS011;3880;51.464;-2.566;2022-09-03T13:35:20;6.38;;;4.43;;
7675;SDS011;3880;51.464;-2.566;2022-09-03T13:37:55;5.78;;;4.10;;
7675;SDS011;3880;51.464;-2.566;2022-09-03T13:40:31;6.53;;;4.63;;
7675;SDS011;3880;51.464;-2.566;2022-09-03T13:43:02;6.38;;;5.18;;
7675;SDS011;3880;51.464;-2.566;2022-09-03T13:45:42;5.65;;;4.70;;
7675;SDS011;3880;51.464;-2.566;2022-09-03T13:48:16;7.63;;;5.20;;
7675;SDS011;3880;51.464;-2.566;2022-09-03T13:51:08;7.97;;;5.78;;
7675;SDS011;3880;51.464;-2.566;2022-09-03T13:53:43;7.80;;;5.18;;
7675;SDS011;3880;51.464;-2.566;2022-09-03T13:56:19;7.43;;;5.43;;
7675;SDS011;3880;51.464;-2.566;2022-09-03T13:58:52;11.25;;;5.15;;
7675;SDS011;3880;51.464;-2.566;2022-09-03T14:01:27;5.45;;;4.70;;
7675;SDS011;3880;51.464;-2.566;2022-09-03T14:04:10;6.30;;;4.88;;
7675;SDS011;3880;51.464;-2.566;2022-09-03T14:06:53;10.27;;;4.60;;
7675;SDS011;3880;51.464;-2.566;2022-09-03T14:09:26;11.37;;;4.30;;
7675;SDS011;3880;51.464;-2.566;2022-09-03T14:12:01;7.13;;;4.43;;
7675;SDS011;3880;51.464;-2.566;2022-09-03T14:14:36;6.70;;;4.27;;
7675;SDS011;3880;51.464;-2.566;2022-09-03T14:17:11;6.20;;;4.20;;
7675;SDS011;3880;51.464;-2.566;2022-09-03T14:19:45;10.07;;;4.50;;
7675;SDS011;3880;51.464;-2.566;2022-09-03T14:22:23;5.40;;;4.00;;
7675;SDS011;3880;51.464;-2.566;2022-09-03T14:24:55;5.80;;;4.00;;
7675;SDS011;3880;51.464;-2.566;2022-09-03T14:27:26;6.90;;;4.10;;
7675;SDS011;3880;51.464;-2.566;2022-09-03T14:29:57;5.40;;;3.83;;
7675;SDS011;3880;51.464;-2.566;2022-09-03T14:32:41;8.77;;;4.03;;
7675;SDS011;3880;51.464;-2.566;2022-09-03T14:35:23;4.60;;;4.13;;
7675;SDS011;3880;51.464;-2.566;2022-09-03T14:38:04;6.53;;;4.37;;
7675;SDS011;3880;51.464;-2.566;2022-09-03T14:40:57;10.13;;;4.67;;
7675;SDS011;3880;51.464;-2.566;2022-09-03T14:43:42;4.50;;;3.67;;
7675;SDS011;3880;51.464;-2.566;2022-09-03T14:46:32;7.27;;;4.83;;
7675;SDS011;3880;51.464;-2.566;2022-09-03T14:49:14;6.90;;;4.77;;
7675;SDS011;3880;51.464;-2.566;2022-09-03T14:51:56;7.53;;;4.83;;
7675;SDS011;3880;51.464;-2.566;2022-09-03T14:55:11;8.00;;;5.10;;
7675;SDS011;3880;51.464;-2.566;2022-09-03T15:00:42;7.00;;;4.17;;
7675;SDS011;3880;51.464;-2.566;2022-09-03T15:03:26;7.17;;;4.03;;
7675;SDS011;3880;51.464;-2.566;2022-09-03T15:06:13;7.63;;;4.20;;
7675;SDS011;3880;51.464;-2.566;2022-09-03T15:09:00;5.37;;;3.77;;
7675;SDS011;3880;51.464;-2.566;2022-09-03T15:11:45;5.87;;;3.63;;
7675;SDS011;3880;51.464;-2.566;2022-09-03T15:14:18;5.87;;;3.43;;
7675;SDS011;3880;51.464;-2.566;2022-09-03T15:16:52;6.97;;;3.63;;
7675;SDS011;3880;51.464;-2.566;2022-09-03T15:19:37;8.20;;;3.53;;
7675;SDS011;3880;51.464;-2.566;2022-09-03T15:22:16;7.53;;;3.83;;
7675;SDS011;3880;51.464;-2.566;2022-09-03T15:24:53;4.70;;;3.27;;
7675;SDS011;3880;51.464;-2.566;2022-09-03T15:27:34;5.00;;;3.20;;
7675;SDS011;3880;51.464;-2.566;2022-09-03T15:30:12;9.87;;;2.90;;
7675;SDS011;3880;51.464;-2.566;2022-09-03T15:32:48;5.50;;;2.87;;
7675;SDS011;3880;51.464;-2.566;2022-09-03T15:35:30;9.33;;;2.43;;
7675;SDS011;3880;51.464;-2.566;2022-09-03T15:38:09;4.77;;;2.43;;
7675;SDS011;3880;51.464;-2.566;2022-09-03T15:40:40;4.17;;;2.53;;
7675;SDS011;3880;51.464;-2.566;2022-09-03T15:43:17;4.63;;;2.77;;
7675;SDS011;3880;51.464;-2.566;2022-09-03T15:45:50;3.27;;;2.43;;
7675;SDS011;3880;51.464;-2.566;2022-09-03T15:48:26;2.53;;;1.90;;
7675;SDS011;3880;51.464;-2.566;2022-09-03T15:51:03;3.63;;;2.10;;
7675;SDS011;3880;51.464;-2.566;2022-09-03T15:53:36;4.30;;;2.07;;
7675;SDS011;3880;51.464;-2.566;2022-09-03T15:56:13;2.17;;;1.90;;
7675;SDS011;3880;51.464;-2.566;2022-09-03T15:58:48;3.20;;;2.47;;
7675;SDS011;3880;51.464;-2.566;2022-09-03T16:01:27;4.53;;;1.90;;
7675;SDS011;3880;51.464;-2.566;2022-09-03T16:04:06;5.10;;;2.70;;
7675;SDS011;3880;51.464;-2.566;2022-09-03T16:06:45;4.00;;;2.40;;
7675;SDS011;3880;51.464;-2.566;2022-09-03T16:09:21;5.03;;;2.20;;
7675;SDS011;3880;51.464;-2.566;2022-09-03T16:11:58;3.17;;;2.43;;
7675;SDS011;3880;51.464;-2.566;2022-09-03T16:14:36;4.00;;;2.43;;
7675;SDS011;3880;51.464;-2.566;2022-09-03T16:17:07;3.47;;;2.40;;
7675;SDS011;3880;51.464;-2.566;2022-09-03T16:19:45;3.60;;;2.40;;
7675;SDS011;3880;51.464;-2.566;2022-09-03T16:22:18;3.10;;;2.30;;
7675;SDS011;3880;51.464;-2.566;2022-09-03T16:24:52;3.07;;;2.30;;
7675;SDS011;3880;51.464;-2.566;2022-09-03T16:27:25;6.70;;;2.07;;
7675;SDS011;3880;51.464;-2.566;2022-09-03T16:29:59;4.40;;;2.03;;
7675;SDS011;3880;51.464;-2.566;2022-09-03T16:35:25;6.80;;;2.77;;
7675;SDS011;3880;51.464;-2.566;2022-09-03T16:38:03;6.77;;;2.00;;
7675;SDS011;3880;51.464;-2.566;2022-09-03T16:40:45;4.73;;;2.10;;
7675;SDS011;3880;51.464;-2.566;2022-09-03T16:43:20;2.33;;;2.10;;
7675;SDS011;3880;51.464;-2.566;2022-09-03T16:45:59;8.53;;;2.23;;
7675;SDS011;3880;51.464;-2.566;2022-09-03T16:48:38;3.53;;;2.57;;
7675;SDS011;3880;51.464;-2.566;2022-09-03T16:51:15;4.67;;;2.60;;
7675;SDS011;3880;51.464;-2.566;2022-09-03T16:53:52;5.00;;;2.53;;
7675;SDS011;3880;51.464;-2.566;2022-09-03T16:56:42;1.77;;;1.67;;
7675;SDS011;3880;51.464;-2.566;2022-09-03T16:59:19;10.67;;;2.43;;
7675;SDS011;3880;51.464;-2.566;2022-09-03T17:02:01;3.33;;;2.20;;
7675;SDS011;3880;51.464;-2.566;2022-09-03T17:04:54;5.57;;;2.80;;
7675;SDS011;3880;51.464;-2.566;2022-09-03T17:08:01;5.97;;;3.00;;
7675;SDS011;3880;51.464;-2.566;2022-09-03T17:10:36;5.57;;;2.67;;
7675;SDS011;3880;51.464;-2.566;2022-09-03T17:13:30;3.83;;;2.07;;
7675;SDS011;3880;51.464;-2.566;2022-09-03T17:16:17;4.13;;;2.20;;
7675;SDS011;3880;51.464;-2.566;2022-09-03T17:19:00;5.57;;;2.53;;
7675;SDS011;3880;51.464;-2.566;2022-09-03T17:21:38;8.37;;;3.23;;
7675;SDS011;3880;51.464;-2.566;2022-09-03T17:27:04;4.77;;;2.83;;
7675;SDS011;3880;51.464;-2.566;2022-09-03T17:29:54;6.77;;;2.93;;
7675;SDS011;3880;51.464;-2.566;2022-09-03T17:32:48;7.07;;;3.17;;
7675;SDS011;3880;51.464;-2.566;2022-09-03T17:35:53;6.17;;;3.37;;
7675;SDS011;3880;51.464;-2.566;2022-09-03T17:38:30;9.43;;;2.70;;
7675;SDS011;3880;51.464;-2.566;2022-09-03T17:41:26;3.53;;;2.60;;
7675;SDS011;3880;51.464;-2.566;2022-09-03T17:44:02;8.13;;;2.70;;
7675;SDS011;3880;51.464;-2.566;2022-09-03T17:46:34;7.27;;;2.53;;
7675;SDS011;3880;51.464;-2.566;2022-09-03T17:49:08;6.03;;;2.67;;
7675;SDS011;3880;51.464;-2.566;2022-09-03T17:51:41;6.57;;;2.93;;
7675;SDS011;3880;51.464;-2.566;2022-09-03T17:54:14;4.67;;;2.23;;
7675;SDS011;3880;51.464;-2.566;2022-09-03T17:56:50;8.47;;;2.87;;
7675;SDS011;3880;51.464;-2.566;2022-09-03T17:59:28;6.37;;;3.00;;
7675;SDS011;3880;51.464;-2.566;2022-09-03T18:02:07;6.57;;;2.97;;
7675;SDS011;3880;51.464;-2.566;2022-09-03T18:04:44;5.60;;;3.07;;
7675;SDS011;3880;51.464;-2.566;2022-09-03T18:07:18;6.83;;;2.87;;
7675;SDS011;3880;51.464;-2.566;2022-09-03T18:09:54;5.33;;;2.70;;
7675;SDS011;3880;51.464;-2.566;2022-09-03T18:12:33;6.77;;;3.03;;
7675;SDS011;3880;51.464;-2.566;2022-09-03T18:15:07;7.53;;;3.00;;
7675;SDS011;3880;51.464;-2.566;2022-09-03T18:17:42;3.90;;;2.57;;
7675;SDS011;3880;51.464;-2.566;2022-09-03T18:20:15;5.20;;;3.20;;
7675;SDS011;3880;51.464;-2.566;2022-09-03T18:23:04;6.83;;;3.23;;
7675;SDS011;3880;51.464;-2.566;2022-09-03T18:25:55;5.00;;;2.50;;
7675;SDS011;3880;51.464;-2.566;2022-09-03T18:28:43;7.20;;;3.03;;
7675;SDS011;3880;51.464;-2.566;2022-09-03T18:31:33;5.63;;;2.80;;
7675;SDS011;3880;51.464;-2.566;2022-09-03T18:34:18;3.93;;;2.93;;
7675;SDS011;3880;51.464;-2.566;2022-09-03T18:37:05;7.10;;;2.90;;
7675;SDS011;3880;51.464;-2.566;2022-09-03T18:39:52;5.17;;;3.00;;
7675;SDS011;3880;51.464;-2.566;2022-09-03T18:42:40;9.70;;;2.97;;
7675;SDS011;3880;51.464;-2.566;2022-09-03T18:45:34;10.03;;;3.20;;
7675;SDS011;3880;51.464;-2.566;2022-09-03T18:48:27;5.73;;;3.23;;
7675;SDS011;3880;51.464;-2.566;2022-09-03T18:51:19;4.93;;;2.40;;
7675;SDS011;3880;51.464;-2.566;2022-09-03T18:54:18;8.87;;;3.73;;
7675;SDS011;3880;51.464;-2.566;2022-09-03T18:57:15;5.33;;;3.23;;
7675;SDS011;3880;51.464;-2.566;2022-09-03T19:00:04;4.33;;;2.50;;
7675;SDS011;3880;51.464;-2.566;2022-09-03T19:02:56;11.37;;;2.87;;
7675;SDS011;3880;51.464;-2.566;2022-09-03T19:05:50;9.70;;;3.87;;
7675;SDS011;3880;51.464;-2.566;2022-09-03T19:08:40;8.03;;;3.00;;
7675;SDS011;3880;51.464;-2.566;2022-09-03T19:11:32;7.03;;;3.23;;
7675;SDS011;3880;51.464;-2.566;2022-09-03T19:14:28;4.90;;;2.90;;
7675;SDS011;3880;51.464;-2.566;2022-09-03T19:17:21;7.97;;;3.40;;
7675;SDS011;3880;51.464;-2.566;2022-09-03T19:20:17;6.50;;;3.20;;
7675;SDS011;3880;51.464;-2.566;2022-09-03T19:23:10;5.23;;;3.17;;
7675;SDS011;3880;51.464;-2.566;2022-09-03T19:25:54;10.33;;;3.80;;
7675;SDS011;3880;51.464;-2.566;2022-09-03T19:28:43;13.70;;;5.17;;
7675;SDS011;3880;51.464;-2.566;2022-09-03T19:31:40;4.80;;;3.33;;
7675;SDS011;3880;51.464;-2.566;2022-09-03T19:34:35;5.93;;;2.90;;
7675;SDS011;3880;51.464;-2.566;2022-09-03T19:37:39;4.53;;;3.00;;
7675;SDS011;3880;51.464;-2.566;2022-09-03T19:40:35;7.27;;;3.50;;
7675;SDS011;3880;51.464;-2.566;2022-09-03T19:43:34;7.03;;;3.53;;
7675;SDS011;3880;51.464;-2.566;2022-09-03T19:46:26;11.60;;;3.73;;
7675;SDS011;3880;51.464;-2.566;2022-09-03T19:49:19;8.47;;;3.70;;
7675;SDS011;3880;51.464;-2.566;2022-09-03T19:52:08;10.23;;;3.07;;
7675;SDS011;3880;51.464;-2.566;2022-09-03T19:55:02;5.07;;;2.80;;
7675;SDS011;3880;51.464;-2.566;2022-09-03T19:57:48;6.40;;;3.60;;
7675;SDS011;3880;51.464;-2.566;2022-09-03T20:00:38;7.63;;;4.03;;
7675;SDS011;3880;51.464;-2.566;2022-09-03T20:03:23;7.97;;;3.57;;
7675;SDS011;3880;51.464;-2.566;2022-09-03T20:06:10;8.47;;;3.70;;
7675;SDS011;3880;51.464;-2.566;2022-09-03T20:08:58;9.83;;;5.00;;
7675;SDS011;3880;51.464;-2.566;2022-09-03T20:11:48;11.30;;;3.40;;
7675;SDS011;3880;51.464;-2.566;2022-09-03T20:14:15;12.97;;;4.10;;
7675;SDS011;3880;51.464;-2.566;2022-09-03T20:16:47;9.77;;;4.73;;
7675;SDS011;3880;51.464;-2.566;2022-09-03T20:19:28;4.77;;;3.90;;
7675;SDS011;3880;51.464;-2.566;2022-09-03T20:22:09;7.63;;;4.17;;
7675;SDS011;3880;51.464;-2.566;2022-09-03T20:24:46;7.37;;;3.50;;
7675;SDS011;3880;51.464;-2.566;2022-09-03T20:27:25;7.93;;;3.87;;
7675;SDS011;3880;51.464;-2.566;2022-09-03T20:29:59;6.57;;;3.67;;
7675;SDS011;3880;51.464;-2.566;2022-09-03T20:35:35;6.40;;;3.73;;
7675;SDS011;3880;51.464;-2.566;2022-09-03T20:38:26;7.77;;;4.10;;
7675;SDS011;3880;51.464;-2.566;2022-09-03T20:41:11;8.03;;;4.17;;
7675;SDS011;3880;51.464;-2.566;2022-09-03T20:43:48;6.23;;;3.33;;
7675;SDS011;3880;51.464;-2.566;2022-09-03T20:46:50;5.50;;;3.40;;
7675;SDS011;3880;51.464;-2.566;2022-09-03T20:49:28;7.73;;;3.50;;
7675;SDS011;3880;51.464;-2.566;2022-09-03T20:52:05;10.63;;;3.70;;
7675;SDS011;3880;51.464;-2.566;2022-09-03T20:54:40;6.97;;;3.83;;
7675;SDS011;3880;51.464;-2.566;2022-09-03T20:57:20;7.83;;;4.97;;
7675;SDS011;3880;51.464;-2.566;2022-09-03T21:00:02;10.17;;;4.00;;
7675;SDS011;3880;51.464;-2.566;2022-09-03T21:02:37;7.63;;;4.10;;
7675;SDS011;3880;51.464;-2.566;2022-09-03T21:05:18;5.53;;;3.90;;
7675;SDS011;3880;51.464;-2.566;2022-09-03T21:07:54;13.53;;;5.10;;
7675;SDS011;3880;51.464;-2.566;2022-09-03T21:10:30;6.17;;;4.17;;
7675;SDS011;3880;51.464;-2.566;2022-09-03T21:13:05;9.23;;;4.73;;
7675;SDS011;3880;51.464;-2.566;2022-09-03T21:15:40;11.63;;;4.37;;
7675;SDS011;3880;51.464;-2.566;2022-09-03T21:18:15;5.67;;;4.23;;
7675;SDS011;3880;51.464;-2.566;2022-09-03T21:20:54;7.43;;;4.17;;
7675;SDS011;3880;51.464;-2.566;2022-09-03T21:23:34;6.43;;;4.47;;
7675;SDS011;3880;51.464;-2.566;2022-09-03T21:26:06;10.37;;;4.43;;
7675;SDS011;3880;51.464;-2.566;2022-09-03T21:28:39;9.60;;;4.00;;
7675;SDS011;3880;51.464;-2.566;2022-09-03T21:31:09;7.13;;;4.00;;
7675;SDS011;3880;51.464;-2.566;2022-09-03T21:33:43;8.47;;;4.73;;
7675;SDS011;3880;51.464;-2.566;2022-09-03T21:36:14;12.90;;;4.83;;
7675;SDS011;3880;51.464;-2.566;2022-09-03T21:38:56;11.60;;;4.87;;
7675;SDS011;3880;51.464;-2.566;2022-09-03T21:41:27;13.37;;;4.10;;
7675;SDS011;3880;51.464;-2.566;2022-09-03T21:43:59;7.77;;;4.23;;
7675;SDS011;3880;51.464;-2.566;2022-09-03T21:46:31;5.50;;;4.30;;
7675;SDS011;3880;51.464;-2.566;2022-09-03T21:49:04;9.63;;;5.03;;
7675;SDS011;3880;51.464;-2.566;2022-09-03T21:51:36;5.33;;;4.13;;
7675;SDS011;3880;51.464;-2.566;2022-09-03T21:54:09;13.00;;;5.53;;
7675;SDS011;3880;51.464;-2.566;2022-09-03T21:56:49;8.33;;;4.93;;
7675;SDS011;3880;51.464;-2.566;2022-09-03T21:59:30;9.80;;;4.57;;
7675;SDS011;3880;51.464;-2.566;2022-09-03T22:02:16;5.73;;;4.20;;
7675;SDS011;3880;51.464;-2.566;2022-09-03T22:04:49;6.07;;;4.80;;
7675;SDS011;3880;51.464;-2.566;2022-09-03T22:07:19;6.70;;;4.30;;
7675;SDS011;3880;51.464;-2.566;2022-09-03T22:09:53;4.30;;;3.73;;
7675;SDS011;3880;51.464;-2.566;2022-09-03T22:12:28;7.03;;;4.20;;
7675;SDS011;3880;51.464;-2.566;2022-09-03T22:15:05;6.13;;;4.53;;
7675;SDS011;3880;51.464;-2.566;2022-09-03T22:17:39;18.60;;;5.33;;
7675;SDS011;3880;51.464;-2.566;2022-09-03T22:20:11;6.80;;;4.23;;
7675;SDS011;3880;51.464;-2.566;2022-09-03T22:22:40;8.17;;;4.50;;
7675;SDS011;3880;51.464;-2.566;2022-09-03T22:25:15;8.53;;;4.90;;
7675;SDS011;3880;51.464;-2.566;2022-09-03T22:27:50;7.93;;;4.40;;
7675;SDS011;3880;51.464;-2.566;2022-09-03T22:30:27;5.80;;;4.10;;
7675;SDS011;3880;51.464;-2.566;2022-09-03T22:33:02;9.30;;;5.10;;
7675;SDS011;3880;51.464;-2.566;2022-09-03T22:38:34;4.93;;;3.97;;
7675;SDS011;3880;51.464;-2.566;2022-09-03T22:41:22;10.20;;;4.77;;
7675;SDS011;3880;51.464;-2.566;2022-09-03T22:44:03;7.07;;;4.67;;
7675;SDS011;3880;51.464;-2.566;2022-09-03T22:46:44;9.17;;;4.60;;
7675;SDS011;3880;51.464;-2.566;2022-09-03T22:49:27;5.63;;;4.50;;
7675;SDS011;3880;51.464;-2.566;2022-09-03T22:52:13;6.80;;;4.77;;
7675;SDS011;3880;51.464;-2.566;2022-09-03T22:54:52;7.90;;;4.10;;
7675;SDS011;3880;51.464;-2.566;2022-09-03T22:57:39;7.13;;;4.80;;
7675;SDS011;3880;51.464;-2.566;2022-09-03T23:00:13;8.73;;;3.93;;
7675;SDS011;3880;51.464;-2.566;2022-09-03T23:02:40;8.73;;;4.73;;
7675;SDS011;3880;51.464;-2.566;2022-09-03T23:05:08;9.00;;;4.97;;
7675;SDS011;3880;51.464;-2.566;2022-09-03T23:07:49;8.60;;;4.70;;
7675;SDS011;3880;51.464;-2.566;2022-09-03T23:10:21;8.63;;;4.70;;
7675;SDS011;3880;51.464;-2.566;2022-09-03T23:12:57;10.23;;;4.83;;
7675;SDS011;3880;51.464;-2.566;2022-09-03T23:15:33;10.73;;;5.27;;
7675;SDS011;3880;51.464;-2.566;2022-09-03T23:18:03;8.03;;;4.70;;
7675;SDS011;3880;51.464;-2.566;2022-09-03T23:20:37;13.93;;;4.50;;
7675;SDS011;3880;51.464;-2.566;2022-09-03T23:23:12;8.63;;;4.90;;
7675;SDS011;3880;51.464;-2.566;2022-09-03T23:25:44;7.90;;;4.57;;
7675;SDS011;3880;51.464;-2.566;2022-09-03T23:28:16;7.80;;;5.23;;
7675;SDS011;3880;51.464;-2.566;2022-09-03T23:30:49;7.67;;;5.07;;
7675;SDS011;3880;51.464;-2.566;2022-09-03T23:33:16;7.03;;;5.10;;
7675;SDS011;3880;51.464;-2.566;2022-09-03T23:35:45;7.70;;;4.43;;
7675;SDS011;3880;51.464;-2.566;2022-09-03T23:38:18;7.97;;;5.30;;
7675;SDS011;3880;51.464;-2.566;2022-09-03T23:40:53;5.40;;;4.27;;
7675;SDS011;3880;51.464;-2.566;2022-09-03T23:46:31;8.47;;;5.17;;
7675;SDS011;3880;51.464;-2.566;2022-09-03T23:49:20;9.17;;;4.70;;
7675;SDS011;3880;51.464;-2.566;2022-09-03T23:52:12;9.13;;;5.07;;
7675;SDS011;3880;51.464;-2.566;2022-09-03T23:54:48;9.03;;;5.27;;
7675;SDS011;3880;51.464;-2.566;2022-09-03T23:57:23;8.13;;;6.33;;
